createdAt,value
2022-08-22T00:03:39.399Z,13.90
2022-08-22T00:08:50.310Z,14.68
2022-08-22T00:14:02.181Z,15.02
2022-08-22T00:19:30.118Z,14.77
2022-08-22T00:24:33.252Z,15.26
2022-08-22T00:29:48.437Z,15.25
2022-08-22T00:35:06.372Z,14.85
2022-08-22T00:40:18.722Z,14.86
2022-08-22T00:45:34.667Z,14.77
2022-08-22T00:51:14.681Z,14.68
2022-08-22T00:56:42.599Z,14.40
2022-08-22T01:01:53.379Z,13.48
2022-08-22T01:07:37.853Z,14.17
2022-08-22T01:12:48.920Z,14.36
2022-08-22T01:18:30.248Z,14.36
2022-08-22T01:23:48.180Z,14.30
2022-08-22T01:29:33.375Z,14.76
2022-08-22T01:34:54.746Z,14.40
2022-08-22T01:40:36.445Z,13.96
2022-08-22T01:46:24.844Z,13.87
2022-08-22T01:51:51.032Z,13.98
2022-08-22T01:57:01.983Z,13.94
2022-08-22T02:02:32.973Z,14.06
2022-08-22T02:07:49.363Z,13.97
2022-08-22T02:13:10.391Z,14.01
2022-08-22T02:18:23.915Z,13.89
2022-08-22T02:23:49.554Z,14.05
2022-08-22T02:29:15.594Z,13.96
2022-08-22T02:34:42.013Z,14.10
2022-08-22T02:40:07.887Z,13.69
2022-08-22T02:45:23.669Z,13.75
2022-08-22T02:50:48.315Z,13.33
2022-08-22T02:55:59.902Z,13.37
2022-08-22T03:01:24.505Z,13.77
2022-08-22T03:12:45.676Z,13.78
2022-08-22T03:17:56.344Z,13.84
2022-08-22T03:23:08.175Z,13.76
2022-08-22T03:28:16.859Z,13.58
2022-08-22T03:33:22.398Z,13.73
2022-08-22T03:38:45.497Z,13.62
2022-08-22T03:44:16.456Z,13.44
2022-08-22T03:49:34.182Z,13.61
2022-08-22T03:55:06.230Z,13.40
2022-08-22T04:00:32.722Z,13.37
2022-08-22T04:05:38.826Z,13.66
2022-08-22T04:11:02.595Z,13.57
2022-08-22T04:16:42.487Z,13.70
2022-08-22T04:22:22.978Z,13.53
2022-08-22T04:27:38.603Z,13.40
2022-08-22T04:32:48.274Z,13.33
2022-08-22T04:38:09.290Z,13.10
2022-08-22T04:43:59.766Z,13.18
2022-08-22T04:49:13.406Z,12.25
2022-08-22T04:54:54.280Z,13.38
2022-08-22T05:00:17.383Z,13.36
2022-08-22T05:05:26.833Z,13.37
2022-08-22T05:10:41.418Z,12.99
2022-08-22T05:15:49.828Z,13.41
2022-08-22T05:20:54.849Z,12.62
2022-08-22T05:26:03.347Z,12.82
2022-08-22T05:31:24.808Z,14.02
2022-08-22T05:36:31.428Z,13.62
2022-08-22T05:41:38.774Z,13.96
2022-08-22T05:46:44.972Z,13.91
2022-08-22T05:52:10.836Z,14.91
2022-08-22T05:57:38.137Z,15.16
2022-08-22T06:02:59.846Z,15.28
2022-08-22T06:08:15.553Z,15.62
2022-08-22T06:13:35.904Z,16.24
2022-08-22T06:18:42.439Z,16.76
2022-08-22T06:23:57.660Z,16.73
2022-08-22T06:29:02.631Z,17.41
2022-08-22T06:34:12.088Z,17.77
2022-08-22T06:39:30.975Z,17.28
2022-08-22T06:44:38.945Z,18.29
2022-08-22T06:49:46.653Z,18.73
2022-08-22T06:54:58.138Z,19.22
2022-08-22T07:00:10.653Z,19.26
2022-08-22T07:05:19.063Z,19.45
2022-08-22T07:10:23.951Z,20.54
2022-08-22T07:15:36.223Z,20.84
2022-08-22T07:20:46.788Z,21.16
2022-08-22T07:26:11.912Z,21.44
2022-08-22T07:31:45.431Z,21.29
2022-08-22T07:37:04.280Z,20.75
2022-08-22T07:42:19.723Z,21.65
2022-08-22T07:47:26.118Z,22.32
2022-08-22T07:52:37.415Z,22.86
2022-08-22T07:57:44.115Z,23.11
2022-08-22T08:02:51.718Z,23.01
2022-08-22T08:07:57.379Z,23.18
2022-08-22T08:13:05.611Z,24.31
2022-08-22T08:18:20.066Z,24.82
2022-08-22T08:23:25.858Z,24.52
2022-08-22T08:28:35.367Z,24.53
2022-08-22T08:33:42.050Z,25.34
2022-08-22T08:38:54.141Z,25.72
2022-08-22T08:44:17.992Z,25.36
2022-08-22T08:49:42.789Z,26.24
2022-08-22T09:09:13.687Z,27.06
2022-08-22T09:19:27.995Z,26.75
2022-08-22T09:24:48.101Z,27.35
2022-08-22T09:30:08.740Z,26.43
2022-08-22T09:35:33.389Z,26.42
2022-08-22T09:40:46.269Z,26.43
2022-08-22T09:46:02.398Z,25.91
2022-08-22T09:51:31.456Z,25.09
2022-08-22T09:57:02.533Z,25.68
2022-08-22T10:02:55.303Z,25.11
2022-08-22T10:08:26.311Z,25.16
2022-08-22T10:14:00.707Z,25.06
2022-08-22T10:19:38.554Z,24.99
2022-08-22T10:24:51.881Z,24.12
2022-08-22T10:30:16.362Z,24.70
2022-08-22T10:35:44.225Z,25.57
2022-08-22T10:40:52.947Z,26.23
2022-08-22T10:46:04.637Z,26.64
2022-08-22T10:51:19.533Z,26.45
2022-08-22T10:56:43.822Z,26.26
2022-08-22T11:02:02.695Z,25.37
2022-08-22T11:07:39.408Z,26.07
2022-08-22T11:13:09.823Z,25.72
2022-08-22T11:18:34.579Z,26.48
2022-08-22T11:23:45.511Z,26.84
2022-08-22T11:29:02.759Z,27.02
2022-08-22T11:34:31.981Z,27.10
2022-08-22T11:39:47.959Z,27.17
2022-08-22T11:44:59.294Z,27.53
2022-08-22T11:50:42.202Z,27.69
2022-08-22T11:56:12.807Z,27.12
2022-08-22T12:01:20.900Z,26.52
2022-08-22T12:06:56.362Z,27.52
2022-08-22T12:12:18.146Z,27.42
2022-08-22T12:18:01.363Z,27.03
2022-08-22T12:23:40.793Z,27.05
2022-08-22T12:29:15.572Z,26.72
2022-08-22T12:34:30.375Z,26.77
2022-08-22T12:39:36.338Z,26.54
2022-08-22T12:44:59.140Z,26.79
2022-08-22T12:50:25.964Z,26.98
2022-08-22T12:55:46.646Z,27.11
2022-08-22T13:00:50.985Z,27.17
2022-08-22T13:06:00.495Z,26.93
2022-08-22T13:11:12.452Z,26.59
2022-08-22T13:16:35.435Z,26.72
2022-08-22T13:21:48.369Z,27.30
2022-08-22T13:27:01.586Z,27.07
2022-08-22T13:32:05.377Z,27.23
2022-08-22T13:37:15.716Z,26.87
2022-08-22T13:42:30.462Z,28.12
2022-08-22T13:47:39.487Z,28.15
2022-08-22T13:53:07.403Z,28.15
2022-08-22T13:58:45.005Z,27.23
2022-08-22T14:03:55.418Z,26.33
2022-08-22T14:09:08.595Z,26.33
2022-08-22T14:14:11.904Z,26.52
2022-08-22T14:19:32.303Z,27.09
2022-08-22T14:25:21.309Z,26.44
2022-08-22T14:30:29.215Z,27.11
2022-08-22T14:35:38.177Z,28.47
2022-08-22T14:40:43.097Z,27.86
2022-08-22T14:45:55.010Z,27.62
2022-08-22T14:51:03.883Z,28.22
2022-08-22T14:56:11.268Z,28.42
2022-08-22T15:01:17.886Z,28.41
2022-08-22T15:06:37.063Z,27.89
2022-08-22T15:11:42.286Z,26.18
2022-08-22T15:17:08.205Z,27.09
2022-08-22T15:22:25.915Z,27.22
2022-08-22T15:27:33.789Z,26.74
2022-08-22T15:32:42.958Z,26.60
2022-08-22T15:38:11.254Z,25.79
2022-08-22T15:43:28.828Z,26.25
2022-08-22T15:48:41.018Z,26.51
2022-08-22T15:53:44.093Z,26.75
2022-08-22T15:59:27.190Z,26.25
2022-08-22T16:04:50.373Z,27.08
2022-08-22T16:09:57.860Z,27.00
2022-08-22T16:15:06.020Z,26.33
2022-08-22T16:25:17.062Z,26.47
2022-08-22T16:30:33.598Z,27.73
2022-08-22T16:36:14.252Z,27.80
2022-08-22T16:41:44.510Z,26.90
2022-08-22T16:46:49.607Z,27.47
2022-08-22T16:52:27.380Z,28.06
2022-08-22T16:58:06.009Z,27.57
2022-08-22T17:03:19.411Z,27.95
2022-08-22T17:08:25.985Z,28.24
2022-08-22T17:13:48.754Z,28.39
2022-08-22T17:19:01.898Z,29.63
2022-08-22T17:24:33.714Z,29.75
2022-08-22T17:29:58.086Z,29.36
2022-08-22T17:35:17.332Z,29.22
2022-08-22T17:40:37.703Z,28.00
2022-08-22T17:45:55.233Z,27.67
2022-08-22T17:51:03.954Z,26.69
2022-08-22T17:56:25.783Z,25.88
2022-08-22T18:01:43.695Z,25.66
2022-08-22T18:06:59.769Z,25.05
2022-08-22T18:12:27.138Z,24.94
2022-08-22T18:17:40.403Z,23.09
2022-08-22T18:23:04.997Z,23.41
2022-08-22T18:28:45.702Z,22.10
2022-08-22T18:33:59.795Z,21.67
2022-08-22T18:39:10.478Z,22.76
2022-08-22T18:44:38.547Z,22.59
2022-08-22T18:49:54.991Z,23.06
2022-08-22T18:55:19.431Z,23.09
2022-08-22T19:00:27.673Z,22.75
2022-08-22T19:05:46.200Z,22.82
2022-08-22T19:11:04.352Z,22.61
2022-08-22T19:16:07.622Z,22.46
2022-08-22T19:21:37.686Z,22.14
2022-08-22T19:26:44.600Z,22.37
2022-08-22T19:31:51.639Z,21.93
2022-08-22T19:37:30.523Z,22.00
2022-08-22T19:42:39.200Z,21.88
2022-08-22T19:47:53.644Z,21.93
2022-08-22T19:53:02.543Z,21.52
2022-08-22T19:58:20.950Z,21.73
2022-08-22T20:04:04.918Z,22.05
2022-08-22T20:09:46.197Z,21.81
2022-08-22T20:14:50.280Z,21.83
2022-08-22T20:25:41.512Z,21.31
2022-08-22T20:30:47.899Z,21.56
2022-08-22T20:35:59.954Z,21.22
2022-08-22T20:41:26.982Z,21.29
2022-08-22T20:46:46.603Z,21.11
2022-08-22T20:52:06.446Z,21.15
2022-08-22T20:57:16.852Z,21.22
2022-08-22T21:02:25.177Z,21.04
2022-08-22T21:07:40.785Z,20.48
2022-08-22T21:12:44.014Z,20.29
2022-08-22T21:17:47.364Z,20.10
2022-08-22T21:22:51.328Z,21.06
2022-08-22T21:27:55.877Z,20.92
2022-08-22T21:32:59.134Z,21.17
2022-08-22T21:38:03.078Z,20.76
2022-08-22T21:43:07.991Z,21.11
2022-08-22T21:48:33.981Z,21.45
2022-08-22T21:53:37.000Z,20.92
2022-08-22T21:58:43.189Z,21.37
2022-08-22T22:03:46.413Z,21.10
2022-08-22T22:08:50.859Z,20.90
2022-08-22T22:13:54.211Z,20.32
2022-08-22T22:18:58.051Z,20.03
2022-08-22T22:24:01.155Z,21.06
2022-08-22T22:29:04.879Z,21.25
2022-08-22T22:34:08.131Z,21.24
2022-08-22T22:39:11.733Z,20.33
2022-08-22T22:44:14.883Z,21.12
2022-08-22T22:49:19.440Z,20.97
2022-08-22T22:54:27.209Z,21.17
2022-08-22T22:59:30.687Z,20.18
2022-08-22T23:04:37.985Z,21.21
2022-08-22T23:09:44.781Z,20.84
2022-08-22T23:14:48.458Z,19.88
2022-08-22T23:19:52.318Z,19.99
2022-08-22T23:24:55.591Z,21.01
2022-08-22T23:29:58.976Z,20.04
2022-08-22T23:35:01.959Z,20.68
2022-08-22T23:40:08.805Z,20.89
2022-08-22T23:45:12.038Z,20.90
2022-08-22T23:50:15.391Z,20.79
2022-08-22T23:55:19.335Z,20.72
